sensor_id;sensor_type;location;lat;lon;timestamp;pressure;altitude;pressure_sealevel;temperature;humidity
28701;BME280;15877;52.344;16.790;2023-01-16T00:00:33;99346.08;;;6.46;65.35
28701;BME280;15877;52.344;16.790;2023-01-16T00:03:26;99339.77;;;6.38;65.73
28701;BME280;15877;52.344;16.790;2023-01-16T00:05:59;99335.23;;;6.43;65.47
28701;BME280;15877;52.344;16.790;2023-01-16T00:08:32;99337.20;;;6.29;65.62
28701;BME280;15877;52.344;16.790;2023-01-16T00:11:05;99337.98;;;6.35;65.93
28701;BME280;15877;52.344;16.790;2023-01-16T00:13:38;99342.23;;;6.57;65.47
28701;BME280;15877;52.344;16.790;2023-01-16T00:16:10;99345.77;;;6.49;65.34
28701;BME280;15877;52.344;16.790;2023-01-16T00:18:43;99346.64;;;6.35;65.97
28701;BME280;15877;52.344;16.790;2023-01-16T00:21:15;99344.95;;;6.48;65.64
28701;BME280;15877;52.344;16.790;2023-01-16T00:23:48;99343.53;;;6.33;65.76
28701;BME280;15877;52.344;16.790;2023-01-16T00:26:21;99341.99;;;6.24;66.21
28701;BME280;15877;52.344;16.790;2023-01-16T00:28:54;99341.66;;;6.22;66.21
28701;BME280;15877;52.344;16.790;2023-01-16T00:31:27;99336.81;;;6.03;66.49
28701;BME280;15877;52.344;16.790;2023-01-16T00:33:59;99337.22;;;6.04;66.95
28701;BME280;15877;52.344;16.790;2023-01-16T00:36:32;99337.31;;;6.26;66.35
28701;BME280;15877;52.344;16.790;2023-01-16T00:39:05;99335.27;;;6.20;66.31
28701;BME280;15877;52.344;16.790;2023-01-16T00:41:38;99322.10;;;6.04;66.37
28701;BME280;15877;52.344;16.790;2023-01-16T00:44:10;99338.11;;;6.26;66.10
28701;BME280;15877;52.344;16.790;2023-01-16T00:46:43;99337.27;;;5.99;66.88
28701;BME280;15877;52.344;16.790;2023-01-16T00:49:15;99334.78;;;6.11;66.83
28701;BME280;15877;52.344;16.790;2023-01-16T00:51:48;99334.40;;;6.16;66.65
28701;BME280;15877;52.344;16.790;2023-01-16T00:54:21;99316.70;;;6.24;66.10
28701;BME280;15877;52.344;16.790;2023-01-16T00:56:53;99334.72;;;6.30;66.18
28701;BME280;15877;52.344;16.790;2023-01-16T00:59:26;99318.23;;;6.11;66.14
28701;BME280;15877;52.344;16.790;2023-01-16T01:01:59;99339.52;;;6.12;66.49
28701;BME280;15877;52.344;16.790;2023-01-16T01:04:32;99338.24;;;6.11;66.69
28701;BME280;15877;52.344;16.790;2023-01-16T01:07:05;99338.39;;;6.00;66.89
28701;BME280;15877;52.344;16.790;2023-01-16T01:09:38;99336.64;;;6.16;66.57
28701;BME280;15877;52.344;16.790;2023-01-16T01:12:10;99334.42;;;6.31;66.04
28701;BME280;15877;52.344;16.790;2023-01-16T01:14:42;99316.34;;;6.29;65.74
28701;BME280;15877;52.344;16.790;2023-01-16T01:17:15;99330.77;;;6.33;65.80
28701;BME280;15877;52.344;16.790;2023-01-16T01:19:47;99327.86;;;6.15;66.55
28701;BME280;15877;52.344;16.790;2023-01-16T01:22:20;99327.08;;;6.26;66.24
28701;BME280;15877;52.344;16.790;2023-01-16T01:24:52;99328.68;;;6.27;66.23
28701;BME280;15877;52.344;16.790;2023-01-16T01:27:25;99331.77;;;6.25;66.11
28701;BME280;15877;52.344;16.790;2023-01-16T01:29:57;99331.45;;;5.96;67.08
28701;BME280;15877;52.344;16.790;2023-01-16T01:32:30;99329.99;;;6.01;67.22
28701;BME280;15877;52.344;16.790;2023-01-16T01:35:02;99323.78;;;6.23;66.61
28701;BME280;15877;52.344;16.790;2023-01-16T01:37:36;99323.73;;;6.32;66.34
28701;BME280;15877;52.344;16.790;2023-01-16T01:40:11;99314.48;;;6.23;66.36
28701;BME280;15877;52.344;16.790;2023-01-16T01:42:42;99311.34;;;6.12;66.67
28701;BME280;15877;52.344;16.790;2023-01-16T01:45:17;99312.72;;;6.14;66.62
28701;BME280;15877;52.344;16.790;2023-01-16T01:47:57;99316.60;;;6.01;66.92
28701;BME280;15877;52.344;16.790;2023-01-16T01:50:43;99316.02;;;5.97;67.36
28701;BME280;15877;52.344;16.790;2023-01-16T01:53:20;99310.55;;;5.91;67.40
28701;BME280;15877;52.344;16.790;2023-01-16T01:55:59;99305.52;;;5.98;67.19
28701;BME280;15877;52.344;16.790;2023-01-16T01:58:33;99307.16;;;5.94;67.39
28701;BME280;15877;52.344;16.790;2023-01-16T02:01:16;99307.38;;;6.08;67.19
28701;BME280;15877;52.344;16.790;2023-01-16T02:03:51;99291.64;;;5.81;67.25
28701;BME280;15877;52.344;16.790;2023-01-16T02:06:30;99307.48;;;5.85;67.71
28701;BME280;15877;52.344;16.790;2023-01-16T02:09:05;99300.72;;;5.98;67.52
28701;BME280;15877;52.344;16.790;2023-01-16T02:11:40;99300.06;;;6.08;67.10
28701;BME280;15877;52.344;16.790;2023-01-16T02:14:16;99295.64;;;6.19;66.84
28701;BME280;15877;52.344;16.790;2023-01-16T02:16:53;99291.89;;;6.03;67.04
28701;BME280;15877;52.344;16.790;2023-01-16T02:19:50;99290.73;;;5.72;68.23
28701;BME280;15877;52.344;16.790;2023-01-16T02:28:52;99292.77;;;5.84;67.98
28701;BME280;15877;52.344;16.790;2023-01-16T02:31:38;99291.84;;;5.90;67.92
28701;BME280;15877;52.344;16.790;2023-01-16T02:34:27;99291.66;;;5.98;67.65
28701;BME280;15877;52.344;16.790;2023-01-16T02:37:14;99284.33;;;6.13;67.12
28701;BME280;15877;52.344;16.790;2023-01-16T02:40:04;99287.52;;;5.94;67.56
28701;BME280;15877;52.344;16.790;2023-01-16T02:42:44;99280.53;;;5.77;68.13
28701;BME280;15877;52.344;16.790;2023-01-16T02:45:24;99275.74;;;5.67;68.78
28701;BME280;15877;52.344;16.790;2023-01-16T02:48:08;99272.52;;;5.92;68.18
28701;BME280;15877;52.344;16.790;2023-01-16T02:50:50;99270.52;;;5.89;68.02
28701;BME280;15877;52.344;16.790;2023-01-16T02:53:28;99270.12;;;6.04;67.66
28701;BME280;15877;52.344;16.790;2023-01-16T02:56:03;99271.45;;;6.11;67.33
28701;BME280;15877;52.344;16.790;2023-01-16T02:58:41;99270.52;;;6.08;67.32
28701;BME280;15877;52.344;16.790;2023-01-16T03:01:18;99275.23;;;6.11;67.26
28701;BME280;15877;52.344;16.790;2023-01-16T03:04:04;99268.85;;;6.15;67.25
28701;BME280;15877;52.344;16.790;2023-01-16T03:06:43;99266.95;;;6.23;66.91
28701;BME280;15877;52.344;16.790;2023-01-16T03:09:25;99265.70;;;6.23;66.89
28701;BME280;15877;52.344;16.790;2023-01-16T03:12:15;99266.11;;;6.08;67.29
28701;BME280;15877;52.344;16.790;2023-01-16T03:14:58;99255.00;;;5.97;67.11
28701;BME280;15877;52.344;16.790;2023-01-16T03:17:45;99268.33;;;6.01;67.38
28701;BME280;15877;52.344;16.790;2023-01-16T03:20:32;99269.58;;;5.97;67.57
28701;BME280;15877;52.344;16.790;2023-01-16T03:23:12;99255.81;;;6.05;67.27
28701;BME280;15877;52.344;16.790;2023-01-16T03:25:51;99256.04;;;6.09;66.95
28701;BME280;15877;52.344;16.790;2023-01-16T03:28:31;99273.68;;;6.24;66.59
28701;BME280;15877;52.344;16.790;2023-01-16T03:31:11;99273.30;;;6.28;66.46
28701;BME280;15877;52.344;16.790;2023-01-16T03:33:51;99272.56;;;6.31;66.43
28701;BME280;15877;52.344;16.790;2023-01-16T03:36:37;99272.27;;;6.28;66.29
28701;BME280;15877;52.344;16.790;2023-01-16T03:39:13;99276.15;;;6.29;66.54
28701;BME280;15877;52.344;16.790;2023-01-16T03:41:47;99271.61;;;6.27;66.50
28701;BME280;15877;52.344;16.790;2023-01-16T03:44:25;99270.14;;;6.20;66.84
28701;BME280;15877;52.344;16.790;2023-01-16T03:47:01;99266.22;;;6.25;66.58
28701;BME280;15877;52.344;16.790;2023-01-16T03:49:37;99262.10;;;6.16;66.92
28701;BME280;15877;52.344;16.790;2023-01-16T03:52:14;99262.64;;;6.24;66.75
28701;BME280;15877;52.344;16.790;2023-01-16T03:54:53;99256.54;;;6.29;66.40
28701;BME280;15877;52.344;16.790;2023-01-16T03:57:29;99250.23;;;6.34;66.31
28701;BME280;15877;52.344;16.790;2023-01-16T04:00:04;99250.22;;;6.37;66.01
28701;BME280;15877;52.344;16.790;2023-01-16T04:02:46;99250.61;;;6.41;65.70
28701;BME280;15877;52.344;16.790;2023-01-16T04:05:24;99251.05;;;6.35;65.67
28701;BME280;15877;52.344;16.790;2023-01-16T04:08:00;99248.42;;;6.29;65.72
28701;BME280;15877;52.344;16.790;2023-01-16T04:10:36;99243.53;;;6.30;65.80
28701;BME280;15877;52.344;16.790;2023-01-16T04:13:12;99242.05;;;6.30;65.77
28701;BME280;15877;52.344;16.790;2023-01-16T04:15:49;99241.13;;;6.23;65.87
28701;BME280;15877;52.344;16.790;2023-01-16T04:18:24;99238.08;;;6.20;65.93
28701;BME280;15877;52.344;16.790;2023-01-16T04:20:58;99237.68;;;6.16;66.12
28701;BME280;15877;52.344;16.790;2023-01-16T04:23:30;99238.55;;;6.20;66.10
28701;BME280;15877;52.344;16.790;2023-01-16T04:26:03;99232.56;;;6.16;66.10
28701;BME280;15877;52.344;16.790;2023-01-16T04:28:35;99231.11;;;6.11;66.42
28701;BME280;15877;52.344;16.790;2023-01-16T04:31:08;99223.72;;;6.16;66.26
28701;BME280;15877;52.344;16.790;2023-01-16T04:33:40;99224.77;;;6.12;66.29
28701;BME280;15877;52.344;16.790;2023-01-16T04:36:13;99219.27;;;6.02;66.74
28701;BME280;15877;52.344;16.790;2023-01-16T04:38:45;99214.88;;;5.81;67.27
28701;BME280;15877;52.344;16.790;2023-01-16T04:41:19;99209.84;;;5.96;67.04
28701;BME280;15877;52.344;16.790;2023-01-16T04:44:06;99210.27;;;5.97;67.05
28701;BME280;15877;52.344;16.790;2023-01-16T04:46:39;99203.80;;;5.97;66.90
28701;BME280;15877;52.344;16.790;2023-01-16T04:49:12;99211.16;;;6.06;66.76
28701;BME280;15877;52.344;16.790;2023-01-16T04:51:45;99214.83;;;6.08;66.66
28701;BME280;15877;52.344;16.790;2023-01-16T04:54:18;99208.91;;;5.92;67.15
28701;BME280;15877;52.344;16.790;2023-01-16T04:56:51;99208.89;;;5.99;67.01
28701;BME280;15877;52.344;16.790;2023-01-16T04:59:23;99210.34;;;6.00;66.91
28701;BME280;15877;52.344;16.790;2023-01-16T05:01:56;99201.66;;;6.03;66.67
28701;BME280;15877;52.344;16.790;2023-01-16T05:04:29;99201.02;;;6.06;66.66
28701;BME280;15877;52.344;16.790;2023-01-16T05:07:01;99197.78;;;5.98;66.66
28701;BME280;15877;52.344;16.790;2023-01-16T05:09:35;99188.98;;;6.00;66.62
28701;BME280;15877;52.344;16.790;2023-01-16T05:12:08;99189.83;;;5.95;66.90
28701;BME280;15877;52.344;16.790;2023-01-16T05:14:41;99194.19;;;5.96;66.83
28701;BME280;15877;52.344;16.790;2023-01-16T05:17:13;99191.90;;;5.97;66.79
28701;BME280;15877;52.344;16.790;2023-01-16T05:19:46;99194.70;;;6.06;66.58
28701;BME280;15877;52.344;16.790;2023-01-16T05:22:18;99196.42;;;6.06;66.51
28701;BME280;15877;52.344;16.790;2023-01-16T05:24:50;99194.02;;;6.03;66.50
28701;BME280;15877;52.344;16.790;2023-01-16T05:27:23;99188.98;;;6.04;66.26
28701;BME280;15877;52.344;16.790;2023-01-16T05:29:56;99181.73;;;6.08;66.15
28701;BME280;15877;52.344;16.790;2023-01-16T05:32:29;99182.98;;;6.10;65.96
28701;BME280;15877;52.344;16.790;2023-01-16T05:35:01;99182.38;;;6.12;65.86
28701;BME280;15877;52.344;16.790;2023-01-16T05:37:34;99181.70;;;6.05;65.99
28701;BME280;15877;52.344;16.790;2023-01-16T05:40:09;99179.63;;;5.93;66.46
28701;BME280;15877;52.344;16.790;2023-01-16T05:42:44;99177.28;;;5.93;66.37
28701;BME280;15877;52.344;16.790;2023-01-16T05:45:17;99177.42;;;5.97;66.45
28701;BME280;15877;52.344;16.790;2023-01-16T05:47:50;99174.08;;;5.99;66.18
28701;BME280;15877;52.344;16.790;2023-01-16T05:50:22;99163.63;;;5.88;66.36
28701;BME280;15877;52.344;16.790;2023-01-16T05:52:55;99167.27;;;5.93;66.38
28701;BME280;15877;52.344;16.790;2023-01-16T05:55:30;99165.73;;;5.91;66.27
28701;BME280;15877;52.344;16.790;2023-01-16T05:58:03;99165.88;;;5.94;66.27
28701;BME280;15877;52.344;16.790;2023-01-16T06:00:36;99159.35;;;5.95;66.09
28701;BME280;15877;52.344;16.790;2023-01-16T06:03:09;99154.50;;;5.89;66.20
28701;BME280;15877;52.344;16.790;2023-01-16T06:05:41;99158.30;;;5.86;66.33
28701;BME280;15877;52.344;16.790;2023-01-16T06:08:14;99158.61;;;5.89;66.37
28701;BME280;15877;52.344;16.790;2023-01-16T06:10:46;99156.27;;;5.80;66.46
28701;BME280;15877;52.344;16.790;2023-01-16T06:13:20;99152.98;;;5.81;66.62
28701;BME280;15877;52.344;16.790;2023-01-16T06:15:53;99153.59;;;5.80;66.69
28701;BME280;15877;52.344;16.790;2023-01-16T06:18:26;99152.94;;;5.68;67.14
28701;BME280;15877;52.344;16.790;2023-01-16T06:20:58;99150.08;;;5.78;66.87
28701;BME280;15877;52.344;16.790;2023-01-16T06:23:31;99145.20;;;5.84;66.63
28701;BME280;15877;52.344;16.790;2023-01-16T06:26:04;99146.92;;;5.74;66.84
28701;BME280;15877;52.344;16.790;2023-01-16T06:28:40;99145.79;;;5.69;67.01
28701;BME280;15877;52.344;16.790;2023-01-16T06:31:13;99147.73;;;5.63;67.28
28701;BME280;15877;52.344;16.790;2023-01-16T06:33:46;99141.23;;;5.72;67.16
28701;BME280;15877;52.344;16.790;2023-01-16T06:36:18;99134.30;;;5.77;66.99
28701;BME280;15877;52.344;16.790;2023-01-16T06:38:51;99130.39;;;5.78;66.89
28701;BME280;15877;52.344;16.790;2023-01-16T06:41:23;99131.65;;;5.78;66.87
28701;BME280;15877;52.344;16.790;2023-01-16T06:43:56;99132.62;;;5.82;66.72
28701;BME280;15877;52.344;16.790;2023-01-16T06:46:29;99132.72;;;5.79;66.71
28701;BME280;15877;52.344;16.790;2023-01-16T06:49:02;99131.30;;;5.80;66.84
28701;BME280;15877;52.344;16.790;2023-01-16T06:51:35;99129.89;;;5.84;66.61
28701;BME280;15877;52.344;16.790;2023-01-16T06:54:08;99131.20;;;5.82;66.66
28701;BME280;15877;52.344;16.790;2023-01-16T06:56:40;99112.80;;;5.74;66.72
28701;BME280;15877;52.344;16.790;2023-01-16T06:59:13;99128.86;;;5.83;66.93
28701;BME280;15877;52.344;16.790;2023-01-16T07:01:46;99129.84;;;5.84;66.76
28701;BME280;15877;52.344;16.790;2023-01-16T07:04:19;99132.50;;;5.80;66.89
28701;BME280;15877;52.344;16.790;2023-01-16T07:06:52;99130.09;;;5.85;66.91
28701;BME280;15877;52.344;16.790;2023-01-16T07:09:24;99128.44;;;5.78;66.96
28701;BME280;15877;52.344;16.790;2023-01-16T07:12:00;99124.82;;;5.71;67.19
28701;BME280;15877;52.344;16.790;2023-01-16T07:14:33;99121.52;;;5.75;67.25
28701;BME280;15877;52.344;16.790;2023-01-16T07:17:23;99107.36;;;5.67;67.14
28701;BME280;15877;52.344;16.790;2023-01-16T07:20:14;99126.59;;;5.76;67.11
28701;BME280;15877;52.344;16.790;2023-01-16T07:23:16;99119.18;;;5.77;67.28
28701;BME280;15877;52.344;16.790;2023-01-16T07:26:16;99118.72;;;5.83;67.22
28701;BME280;15877;52.344;16.790;2023-01-16T07:28:59;99114.13;;;5.86;67.30
28701;BME280;15877;52.344;16.790;2023-01-16T07:31:34;99115.52;;;5.85;67.34
28701;BME280;15877;52.344;16.790;2023-01-16T07:34:07;99118.83;;;5.89;67.28
28701;BME280;15877;52.344;16.790;2023-01-16T07:36:40;99112.27;;;5.93;67.17
28701;BME280;15877;52.344;16.790;2023-01-16T07:39:12;99108.34;;;5.92;67.26
28701;BME280;15877;52.344;16.790;2023-01-16T07:41:45;99104.55;;;5.84;67.27
28701;BME280;15877;52.344;16.790;2023-01-16T07:44:31;99109.19;;;5.76;67.90
28701;BME280;15877;52.344;16.790;2023-01-16T07:47:05;99108.30;;;5.75;68.00
28701;BME280;15877;52.344;16.790;2023-01-16T07:49:38;99106.81;;;5.83;67.95
28701;BME280;15877;52.344;16.790;2023-01-16T07:52:11;99104.23;;;5.87;67.80
28701;BME280;15877;52.344;16.790;2023-01-16T07:54:43;99106.45;;;5.84;67.79
28701;BME280;15877;52.344;16.790;2023-01-16T07:57:16;99110.95;;;5.85;67.82
28701;BME280;15877;52.344;16.790;2023-01-16T07:59:48;99113.79;;;5.93;67.61
28701;BME280;15877;52.344;16.790;2023-01-16T08:02:21;99118.19;;;5.88;67.84
28701;BME280;15877;52.344;16.790;2023-01-16T08:04:53;99114.38;;;5.90;67.76
28701;BME280;15877;52.344;16.790;2023-01-16T08:07:26;99111.21;;;5.89;67.84
28701;BME280;15877;52.344;16.790;2023-01-16T08:09:59;99094.14;;;5.75;67.90
28701;BME280;15877;52.344;16.790;2023-01-16T08:12:31;99104.56;;;5.84;68.03
28701;BME280;15877;52.344;16.790;2023-01-16T08:15:05;99087.07;;;5.68;68.27
28701;BME280;15877;52.344;16.790;2023-01-16T08:17:40;99100.80;;;5.89;68.29
28701;BME280;15877;52.344;16.790;2023-01-16T08:20:13;99093.88;;;5.97;67.98
28701;BME280;15877;52.344;16.790;2023-01-16T08:22:47;99090.81;;;6.02;68.01
28701;BME280;15877;52.344;16.790;2023-01-16T08:25:22;99094.42;;;5.97;68.15
28701;BME280;15877;52.344;16.790;2023-01-16T08:27:55;99092.56;;;6.11;67.97
28701;BME280;15877;52.344;16.790;2023-01-16T08:30:28;99086.81;;;6.22;67.62
28701;BME280;15877;52.344;16.790;2023-01-16T08:33:01;99082.47;;;6.21;67.58
28701;BME280;15877;52.344;16.790;2023-01-16T08:35:34;99078.61;;;6.12;67.77
28701;BME280;15877;52.344;16.790;2023-01-16T08:38:09;99059.98;;;6.05;67.59
28701;BME280;15877;52.344;16.790;2023-01-16T08:40:41;99071.18;;;6.23;67.77
28701;BME280;15877;52.344;16.790;2023-01-16T08:43:14;99067.69;;;6.12;67.92
28701;BME280;15877;52.344;16.790;2023-01-16T08:46:04;99067.04;;;6.21;67.78
28701;BME280;15877;52.344;16.790;2023-01-16T08:48:54;99068.21;;;6.20;67.80
28701;BME280;15877;52.344;16.790;2023-01-16T08:51:44;99051.16;;;6.14;67.80
28701;BME280;15877;52.344;16.790;2023-01-16T08:54:17;99062.23;;;6.16;67.84
28701;BME280;15877;52.344;16.790;2023-01-16T08:56:50;99059.43;;;6.23;68.21
28701;BME280;15877;52.344;16.790;2023-01-16T08:59:22;99060.27;;;6.25;68.00
28701;BME280;15877;52.344;16.790;2023-01-16T09:01:54;99063.41;;;6.21;67.93
28701;BME280;15877;52.344;16.790;2023-01-16T09:04:27;99055.20;;;6.49;67.43
28701;BME280;15877;52.344;16.790;2023-01-16T09:07:00;99048.17;;;6.57;67.04
28701;BME280;15877;52.344;16.790;2023-01-16T09:09:33;99046.60;;;6.48;67.24
28701;BME280;15877;52.344;16.790;2023-01-16T09:12:09;99043.03;;;6.66;67.02
28701;BME280;15877;52.344;16.790;2023-01-16T09:15:00;99034.65;;;6.70;66.78
28701;BME280;15877;52.344;16.790;2023-01-16T09:17:33;99039.11;;;6.62;66.55
28701;BME280;15877;52.344;16.790;2023-01-16T09:20:08;99024.09;;;6.54;66.59
28701;BME280;15877;52.344;16.790;2023-01-16T09:22:41;99038.05;;;6.65;66.55
28701;BME280;15877;52.344;16.790;2023-01-16T09:25:13;99034.48;;;6.75;66.79
28701;BME280;15877;52.344;16.790;2023-01-16T09:27:46;99027.61;;;6.84;66.58
28701;BME280;15877;52.344;16.790;2023-01-16T09:30:19;99019.86;;;6.94;66.40
28701;BME280;15877;52.344;16.790;2023-01-16T09:32:51;99020.88;;;6.77;66.49
28701;BME280;15877;52.344;16.790;2023-01-16T09:35:24;99020.94;;;6.99;66.58
28701;BME280;15877;52.344;16.790;2023-01-16T09:37:56;99017.45;;;7.08;66.10
28701;BME280;15877;52.344;16.790;2023-01-16T09:40:29;99012.86;;;7.27;66.16
28701;BME280;15877;52.344;16.790;2023-01-16T09:43:12;98997.64;;;7.26;65.62
28701;BME280;15877;52.344;16.790;2023-01-16T09:46:14;99005.70;;;7.49;65.32
28701;BME280;15877;52.344;16.790;2023-01-16T09:48:53;98996.58;;;7.59;64.68
28701;BME280;15877;52.344;16.790;2023-01-16T09:51:31;98991.36;;;7.58;64.52
28701;BME280;15877;52.344;16.790;2023-01-16T09:54:05;98989.45;;;7.70;64.27
28701;BME280;15877;52.344;16.790;2023-01-16T09:57:00;98985.08;;;7.84;64.07
28701;BME280;15877;52.344;16.790;2023-01-16T09:59:54;98975.90;;;7.84;63.64
28701;BME280;15877;52.344;16.790;2023-01-16T10:02:26;98973.27;;;7.91;63.51
28701;BME280;15877;52.344;16.790;2023-01-16T10:04:59;98966.52;;;8.03;63.52
28701;BME280;15877;52.344;16.790;2023-01-16T10:07:49;98961.77;;;8.13;62.81
28701;BME280;15877;52.344;16.790;2023-01-16T10:10:38;98957.45;;;8.24;62.68
28701;BME280;15877;52.344;16.790;2023-01-16T10:16:21;98942.45;;;8.33;62.55
28701;BME280;15877;52.344;16.790;2023-01-16T10:19:02;98933.36;;;8.35;62.28
28701;BME280;15877;52.344;16.790;2023-01-16T10:21:47;98927.84;;;8.50;62.22
28701;BME280;15877;52.344;16.790;2023-01-16T10:24:28;98925.16;;;8.51;62.03
28701;BME280;15877;52.344;16.790;2023-01-16T10:27:10;98922.55;;;8.65;61.42
28701;BME280;15877;52.344;16.790;2023-01-16T10:29:49;98913.20;;;8.78;61.29
28701;BME280;15877;52.344;16.790;2023-01-16T10:32:28;98905.20;;;8.75;61.08
28701;BME280;15877;52.344;16.790;2023-01-16T10:35:06;98902.30;;;8.81;60.73
28701;BME280;15877;52.344;16.790;2023-01-16T10:37:41;98894.78;;;8.82;60.12
28701;BME280;15877;52.344;16.790;2023-01-16T10:40:18;98887.43;;;8.82;60.27
28701;BME280;15877;52.344;16.790;2023-01-16T10:42:57;98880.52;;;9.01;60.54
28701;BME280;15877;52.344;16.790;2023-01-16T10:45:49;98874.17;;;9.18;60.41
28701;BME280;15877;52.344;16.790;2023-01-16T10:48:48;98867.58;;;9.11;59.08
28701;BME280;15877;52.344;16.790;2023-01-16T10:51:38;98861.76;;;9.20;59.16
28701;BME280;15877;52.344;16.790;2023-01-16T10:54:11;98853.25;;;9.09;59.08
28701;BME280;15877;52.344;16.790;2023-01-16T10:56:44;98853.52;;;9.16;59.50
28701;BME280;15877;52.344;16.790;2023-01-16T10:59:17;98842.67;;;9.19;59.15
28701;BME280;15877;52.344;16.790;2023-01-16T11:01:51;98835.11;;;9.39;58.59
28701;BME280;15877;52.344;16.790;2023-01-16T11:04:35;98827.50;;;9.42;58.02
28701;BME280;15877;52.344;16.790;2023-01-16T11:07:16;98821.09;;;9.43;58.12
28701;BME280;15877;52.344;16.790;2023-01-16T11:09:49;98815.63;;;9.47;58.03
28701;BME280;15877;52.344;16.790;2023-01-16T11:12:25;98788.23;;;9.35;57.87
28701;BME280;15877;52.344;16.790;2023-01-16T11:15:18;98792.81;;;9.54;57.55
28701;BME280;15877;52.344;16.790;2023-01-16T11:18:26;98792.34;;;9.47;57.44
28701;BME280;15877;52.344;16.790;2023-01-16T11:21:12;98787.52;;;9.59;57.09
28701;BME280;15877;52.344;16.790;2023-01-16T11:23:48;98782.67;;;9.79;56.80
28701;BME280;15877;52.344;16.790;2023-01-16T11:26:21;98774.95;;;9.90;56.30
28701;BME280;15877;52.344;16.790;2023-01-16T11:28:54;98768.13;;;9.98;56.06
28701;BME280;15877;52.344;16.790;2023-01-16T11:31:29;98764.47;;;10.05;55.83
28701;BME280;15877;52.344;16.790;2023-01-16T11:34:04;98765.52;;;9.89;56.09
28701;BME280;15877;52.344;16.790;2023-01-16T11:36:43;98754.55;;;10.01;56.98
28701;BME280;15877;52.344;16.790;2023-01-16T11:39:19;98754.70;;;10.17;56.64
28701;BME280;15877;52.344;16.790;2023-01-16T11:41:56;98753.10;;;10.21;56.07
28701;BME280;15877;52.344;16.790;2023-01-16T11:44:30;98749.92;;;10.26;56.12
28701;BME280;15877;52.344;16.790;2023-01-16T11:47:25;98740.64;;;10.26;55.84
28701;BME280;15877;52.344;16.790;2023-01-16T11:49:58;98739.98;;;10.29;55.47
28701;BME280;15877;52.344;16.790;2023-01-16T11:52:36;98738.48;;;10.32;55.48
28701;BME280;15877;52.344;16.790;2023-01-16T11:55:14;98737.92;;;10.29;55.03
28701;BME280;15877;52.344;16.790;2023-01-16T11:57:50;98733.27;;;10.24;55.70
28701;BME280;15877;52.344;16.790;2023-01-16T12:00:32;98732.73;;;10.24;55.48
28701;BME280;15877;52.344;16.790;2023-01-16T12:06:22;98718.42;;;10.28;55.20
28701;BME280;15877;52.344;16.790;2023-01-16T12:09:14;98708.77;;;10.26;55.60
28701;BME280;15877;52.344;16.790;2023-01-16T12:12:07;98700.23;;;10.36;55.61
28701;BME280;15877;52.344;16.790;2023-01-16T12:14:58;98703.77;;;10.39;55.38
28701;BME280;15877;52.344;16.790;2023-01-16T12:17:44;98698.83;;;10.31;55.01
28701;BME280;15877;52.344;16.790;2023-01-16T12:20:34;98696.38;;;10.44;55.26
28701;BME280;15877;52.344;16.790;2023-01-16T12:26:31;98686.30;;;10.46;54.44
28701;BME280;15877;52.344;16.790;2023-01-16T12:29:19;98680.31;;;10.37;54.58
28701;BME280;15877;52.344;16.790;2023-01-16T12:32:09;98674.13;;;10.22;54.49
28701;BME280;15877;52.344;16.790;2023-01-16T12:35:05;98664.83;;;10.29;54.99
28701;BME280;15877;52.344;16.790;2023-01-16T12:37:53;98659.73;;;10.33;54.72
28701;BME280;15877;52.344;16.790;2023-01-16T12:40:42;98650.98;;;10.38;54.69
28701;BME280;15877;52.344;16.790;2023-01-16T12:43:29;98643.66;;;10.40;54.60
28701;BME280;15877;52.344;16.790;2023-01-16T12:46:11;98638.83;;;10.42;54.85
28701;BME280;15877;52.344;16.790;2023-01-16T12:49:00;98635.30;;;10.32;55.00
28701;BME280;15877;52.344;16.790;2023-01-16T12:51:49;98633.29;;;10.37;55.42
28701;BME280;15877;52.344;16.790;2023-01-16T12:54:34;98628.30;;;10.48;55.53
28701;BME280;15877;52.344;16.790;2023-01-16T12:57:23;98624.35;;;10.46;55.38
28701;BME280;15877;52.344;16.790;2023-01-16T13:00:08;98622.79;;;10.28;55.08
28701;BME280;15877;52.344;16.790;2023-01-16T13:02:45;98582.73;;;9.94;55.57
28701;BME280;15877;52.344;16.790;2023-01-16T13:05:22;98613.65;;;10.00;56.27
28701;BME280;15877;52.344;16.790;2023-01-16T13:07:59;98609.00;;;9.94;55.97
28701;BME280;15877;52.344;16.790;2023-01-16T13:10:39;98603.83;;;10.00;56.31
28701;BME280;15877;52.344;16.790;2023-01-16T13:13:35;98597.84;;;9.91;56.02
28701;BME280;15877;52.344;16.790;2023-01-16T13:16:14;98596.05;;;9.84;56.61
28701;BME280;15877;52.344;16.790;2023-01-16T13:18:52;98594.58;;;9.77;57.06
28701;BME280;15877;52.344;16.790;2023-01-16T13:21:27;98562.77;;;9.68;56.87
28701;BME280;15877;52.344;16.790;2023-01-16T13:24:03;98573.13;;;9.90;56.64
28701;BME280;15877;52.344;16.790;2023-01-16T13:26:41;98578.88;;;9.96;56.53
28701;BME280;15877;52.344;16.790;2023-01-16T13:29:22;98570.88;;;9.93;56.46
28701;BME280;15877;52.344;16.790;2023-01-16T13:31:59;98567.90;;;9.72;56.50
28701;BME280;15877;52.344;16.790;2023-01-16T13:34:55;98562.75;;;9.86;56.32
28701;BME280;15877;52.344;16.790;2023-01-16T13:37:43;98557.17;;;9.79;56.38
28701;BME280;15877;52.344;16.790;2023-01-16T13:40:51;98550.63;;;9.88;56.56
28701;BME280;15877;52.344;16.790;2023-01-16T13:43:33;98549.92;;;9.71;56.57
28701;BME280;15877;52.344;16.790;2023-01-16T13:46:24;98544.39;;;9.67;57.18
28701;BME280;15877;52.344;16.790;2023-01-16T13:49:01;98542.72;;;9.69;56.78
28701;BME280;15877;52.344;16.790;2023-01-16T13:51:43;98539.29;;;9.58;57.00
28701;BME280;15877;52.344;16.790;2023-01-16T13:54:18;98533.23;;;9.67;56.89
28701;BME280;15877;52.344;16.790;2023-01-16T13:57:02;98529.36;;;9.65;57.13
28701;BME280;15877;52.344;16.790;2023-01-16T13:59:44;98526.88;;;9.53;57.73
28701;BME280;15877;52.344;16.790;2023-01-16T14:02:38;98527.27;;;9.55;57.66
28701;BME280;15877;52.344;16.790;2023-01-16T14:05:23;98520.05;;;9.57;57.77
28701;BME280;15877;52.344;16.790;2023-01-16T14:08:28;98512.80;;;9.49;58.29
28701;BME280;15877;52.344;16.790;2023-01-16T14:11:59;98513.98;;;9.53;58.05